createdAt,value
2023-04-01T00:02:06.850Z,17.58
2023-04-01T00:04:34.229Z,17.25
2023-04-01T00:07:02.770Z,15.18
2023-04-01T00:09:30.479Z,12.13
2023-04-01T00:11:57.762Z,12.23
2023-04-01T00:14:25.033Z,11.25
2023-04-01T00:16:53.496Z,10.20
2023-04-01T00:19:20.991Z,11.82
2023-04-01T00:21:49.083Z,10.75
2023-04-01T00:24:16.358Z,9.87
2023-04-01T00:26:44.981Z,10.60
2023-04-01T00:29:12.380Z,10.57
2023-04-01T00:31:39.741Z,10.13
2023-04-01T00:34:07.039Z,10.15
2023-04-01T00:36:34.329Z,7.83
2023-04-01T00:39:01.690Z,8.80
2023-04-01T00:41:29.094Z,7.40
2023-04-01T00:44:22.645Z,6.28
2023-04-01T00:46:50.323Z,6.40
2023-04-01T00:49:18.683Z,6.27
2023-04-01T00:51:47.106Z,5.40
2023-04-01T00:54:14.879Z,4.75
2023-04-01T00:56:51.039Z,4.97
2023-04-01T00:59:25.972Z,5.60
2023-04-01T01:01:53.375Z,4.57
2023-04-01T01:04:32.231Z,4.63
2023-04-01T01:07:38.697Z,4.30
2023-04-01T01:10:27.964Z,4.03
2023-04-01T01:13:04.321Z,4.13
2023-04-01T01:15:39.175Z,4.77
2023-04-01T01:18:27.726Z,4.75
2023-04-01T01:21:21.931Z,4.20
2023-04-01T01:24:08.117Z,5.03
2023-04-01T01:26:43.748Z,4.78
2023-04-01T01:29:45.254Z,4.87
2023-04-01T01:32:42.006Z,4.25
2023-04-01T01:35:15.519Z,3.90
2023-04-01T01:37:43.061Z,2.97
2023-04-01T01:40:12.658Z,2.38
2023-04-01T01:42:43.032Z,2.50
2023-04-01T01:45:10.468Z,2.33
2023-04-01T01:47:37.885Z,2.03
2023-04-01T01:50:07.420Z,2.17
2023-04-01T01:52:35.010Z,2.08
2023-04-01T01:55:02.923Z,1.80
2023-04-01T01:57:40.384Z,2.22
2023-04-01T02:00:15.442Z,1.77
2023-04-01T02:02:46.249Z,1.88
2023-04-01T02:05:20.062Z,1.70
2023-04-01T02:08:00.160Z,1.50
2023-04-01T02:10:27.776Z,1.90
2023-04-01T02:12:56.765Z,1.70
2023-04-01T02:15:24.142Z,2.03
2023-04-01T02:17:53.174Z,2.13
2023-04-01T02:20:24.043Z,1.90
2023-04-01T02:22:53.032Z,2.13
2023-04-01T02:25:23.970Z,1.70
2023-04-01T02:27:52.165Z,1.90
2023-04-01T02:30:19.619Z,1.95
2023-04-01T02:32:47.604Z,2.40
2023-04-01T02:35:16.213Z,2.10
2023-04-01T02:37:43.726Z,2.05
2023-04-01T02:40:14.516Z,2.33
2023-04-01T02:42:41.871Z,2.50
2023-04-01T02:45:09.774Z,2.10
2023-04-01T02:47:37.240Z,2.28
2023-04-01T02:50:05.232Z,1.83
2023-04-01T02:52:32.500Z,2.22
2023-04-01T02:55:02.224Z,2.22
2023-04-01T02:57:30.614Z,2.00
2023-04-01T02:59:57.968Z,2.05
2023-04-01T03:02:25.404Z,2.30
2023-04-01T03:04:52.891Z,2.05
2023-04-01T03:07:20.248Z,2.20
2023-04-01T03:09:47.612Z,2.10
2023-04-01T03:12:14.970Z,2.20
2023-04-01T03:14:50.683Z,1.92
2023-04-01T03:17:18.292Z,2.10
2023-04-01T03:19:46.138Z,2.35
2023-04-01T03:22:13.769Z,2.20
2023-04-01T03:24:41.100Z,2.05
2023-04-01T03:27:08.537Z,1.98
2023-04-01T03:29:36.186Z,1.95
2023-04-01T03:32:03.515Z,2.17
2023-04-01T03:34:30.962Z,1.88
2023-04-01T03:36:58.540Z,2.03
2023-04-01T03:39:26.303Z,1.90
2023-04-01T03:41:53.633Z,1.85
2023-04-01T03:44:21.401Z,2.30
2023-04-01T03:46:52.015Z,2.25
2023-04-01T03:49:19.273Z,2.35
2023-04-01T03:51:46.758Z,2.60
2023-04-01T03:54:14.323Z,2.53
2023-04-01T03:56:41.674Z,2.35
2023-04-01T03:59:08.996Z,2.50
2023-04-01T04:01:36.226Z,3.50
2023-04-01T04:04:03.802Z,3.63
2023-04-01T04:06:31.109Z,3.33
2023-04-01T04:08:58.400Z,3.47
2023-04-01T04:11:26.964Z,2.80
2023-04-01T04:13:55.560Z,5.15
2023-04-01T04:16:23.960Z,5.35
2023-04-01T04:18:57.491Z,5.78
2023-04-01T04:21:24.834Z,5.97
2023-04-01T04:23:52.564Z,5.30
2023-04-01T04:26:20.853Z,5.25
2023-04-01T04:28:55.210Z,5.15
2023-04-01T04:31:23.449Z,5.70
2023-04-01T04:33:52.430Z,5.85
2023-04-01T04:36:20.002Z,5.63
2023-04-01T04:38:49.251Z,4.95
2023-04-01T04:41:18.805Z,5.28
2023-04-01T04:43:51.111Z,4.88
2023-04-01T04:46:18.483Z,4.43
2023-04-01T04:48:46.681Z,4.35
2023-04-01T04:51:17.998Z,4.70
2023-04-01T04:53:45.507Z,4.00
2023-04-01T04:56:12.989Z,3.80
2023-04-01T04:58:48.526Z,4.88
2023-04-01T05:01:19.613Z,5.55
2023-04-01T05:03:47.179Z,5.22
2023-04-01T05:06:15.783Z,4.70
2023-04-01T05:08:43.849Z,4.30
2023-04-01T05:11:16.720Z,4.65
2023-04-01T05:13:44.716Z,5.45
2023-04-01T05:16:14.305Z,5.43
2023-04-01T05:18:41.737Z,5.65
2023-04-01T05:21:10.156Z,5.28
2023-04-01T05:23:37.525Z,5.70
2023-04-01T05:26:12.781Z,5.17
2023-04-01T05:28:40.514Z,5.50
2023-04-01T05:31:08.138Z,5.88
2023-04-01T05:33:38.731Z,5.43
2023-04-01T05:36:08.101Z,6.15
2023-04-01T05:38:35.527Z,5.43
2023-04-01T05:41:03.139Z,5.03
2023-04-01T05:43:31.654Z,5.57
2023-04-01T05:46:05.655Z,4.93
2023-04-01T05:48:40.429Z,4.13
2023-04-01T05:51:07.759Z,4.07
2023-04-01T05:53:35.224Z,4.00
2023-04-01T05:56:04.029Z,4.03
2023-04-01T05:58:35.372Z,3.97
2023-04-01T06:01:11.292Z,4.43
2023-04-01T06:03:45.902Z,3.10
2023-04-01T06:06:21.073Z,3.22
2023-04-01T06:08:48.437Z,3.35
2023-04-01T06:11:44.982Z,3.47
2023-04-01T06:14:34.034Z,3.80
2023-04-01T06:17:17.514Z,4.50
2023-04-01T06:20:13.618Z,5.20
2023-04-01T06:23:18.460Z,4.97
2023-04-01T06:25:52.082Z,3.85
2023-04-01T06:28:46.515Z,3.72
2023-04-01T06:31:41.662Z,3.37
2023-04-01T06:34:24.076Z,3.58
2023-04-01T06:37:38.874Z,4.00
2023-04-01T06:40:21.600Z,3.80
2023-04-01T06:42:57.675Z,3.33
2023-04-01T06:46:06.085Z,3.80
2023-04-01T06:49:17.223Z,3.67
2023-04-01T06:52:32.176Z,3.78
2023-04-01T06:56:01.495Z,3.70
2023-04-01T06:58:55.069Z,3.97
2023-04-01T07:01:25.595Z,4.07
2023-04-01T07:03:57.029Z,4.72
2023-04-01T07:06:27.080Z,4.03
2023-04-01T07:08:56.453Z,4.05
2023-04-01T07:11:32.636Z,3.25
2023-04-01T07:14:22.549Z,2.80
2023-04-01T07:16:56.328Z,2.03
2023-04-01T07:19:29.582Z,1.77
2023-04-01T07:22:32.714Z,1.88
2023-04-01T07:25:21.883Z,1.65
2023-04-01T07:28:07.405Z,1.40
2023-04-01T07:31:05.944Z,1.30
2023-04-01T07:33:40.937Z,1.35
2023-04-01T07:36:08.377Z,1.80
2023-04-01T07:39:07.291Z,3.10
2023-04-01T07:42:06.650Z,2.10
2023-04-01T07:44:42.771Z,2.97
2023-04-01T07:47:35.574Z,3.20
2023-04-01T07:50:32.769Z,1.52
2023-04-01T07:53:31.338Z,2.67
2023-04-01T07:56:12.737Z,1.50
2023-04-01T07:58:45.981Z,1.98
2023-04-01T08:01:22.614Z,1.50
2023-04-01T08:04:11.109Z,1.75
2023-04-01T08:06:41.229Z,1.50
2023-04-01T08:09:52.933Z,1.40
2023-04-01T08:12:43.920Z,1.20
2023-04-01T08:15:43.704Z,1.58
2023-04-01T08:18:47.812Z,3.17
2023-04-01T08:21:22.811Z,3.03
2023-04-01T08:23:52.676Z,2.90
2023-04-01T08:26:50.848Z,3.45
2023-04-01T08:29:31.413Z,3.10
2023-04-01T08:32:09.858Z,2.70
2023-04-01T08:34:41.681Z,2.50
2023-04-01T08:37:18.705Z,2.80
2023-04-01T08:40:26.646Z,3.50
2023-04-01T08:43:01.866Z,3.30
2023-04-01T08:46:03.872Z,2.45
2023-04-01T08:48:52.903Z,2.67
2023-04-01T08:51:51.775Z,2.90
2023-04-01T08:54:53.887Z,2.95
2023-04-01T08:57:54.715Z,2.90
2023-04-01T09:01:15.103Z,2.47
2023-04-01T09:03:58.815Z,2.80
2023-04-01T09:06:58.561Z,2.60
2023-04-01T09:10:02.667Z,2.65
2023-04-01T09:12:59.072Z,2.80
2023-04-01T09:15:35.116Z,2.58
2023-04-01T09:18:15.125Z,2.20
2023-04-01T09:20:52.220Z,2.60
2023-04-01T09:23:38.834Z,2.70
2023-04-01T09:26:16.567Z,2.55
2023-04-01T09:28:46.226Z,2.30
2023-04-01T09:31:19.586Z,2.60
2023-04-01T09:34:20.804Z,2.47
2023-04-01T09:37:25.572Z,2.33
2023-04-01T09:40:40.140Z,2.10
2023-04-01T09:43:22.089Z,2.00
2023-04-01T09:45:55.449Z,2.08
2023-04-01T09:48:52.334Z,2.13
2023-04-01T09:51:32.442Z,2.22
2023-04-01T09:54:15.628Z,2.30
2023-04-01T09:57:08.119Z,2.45
2023-04-01T10:00:11.612Z,2.30
2023-04-01T10:03:08.525Z,2.30
2023-04-01T10:06:10.369Z,2.17
2023-04-01T10:08:59.390Z,1.80
2023-04-01T10:11:51.625Z,1.85
2023-04-01T10:14:58.134Z,1.90
2023-04-01T10:17:43.384Z,1.60
2023-04-01T10:20:22.219Z,1.67
2023-04-01T10:23:22.147Z,1.80
2023-04-01T10:26:14.628Z,1.27
2023-04-01T10:29:20.131Z,1.60
2023-04-01T10:32:11.881Z,1.57
2023-04-01T10:35:01.973Z,1.42
2023-04-01T10:37:47.558Z,1.45
2023-04-01T10:40:14.755Z,1.20
2023-04-01T10:43:29.849Z,1.40
2023-04-01T10:46:41.806Z,1.20
2023-04-01T10:49:24.538Z,1.40
2023-04-01T10:51:56.471Z,1.20
2023-04-01T10:55:11.925Z,1.05
2023-04-01T10:58:20.883Z,0.95
2023-04-01T11:01:28.534Z,1.10
2023-04-01T11:05:00.074Z,1.13
2023-04-01T11:08:20.424Z,0.95
2023-04-01T11:11:18.579Z,1.00
2023-04-01T11:13:56.062Z,1.10
2023-04-01T11:16:41.593Z,1.10
2023-04-01T11:19:38.196Z,0.90
2023-04-01T11:22:59.717Z,1.23
2023-04-01T11:25:48.767Z,1.17
2023-04-01T11:28:50.663Z,0.90
2023-04-01T11:31:25.115Z,1.00
2023-04-01T11:34:21.963Z,0.98
2023-04-01T11:36:49.309Z,1.38
2023-04-01T11:39:34.536Z,1.50
2023-04-01T11:42:22.304Z,2.00
2023-04-01T11:45:45.546Z,2.00
2023-04-01T11:48:31.296Z,1.80
2023-04-01T11:51:01.493Z,1.67
2023-04-01T11:53:56.215Z,1.30
2023-04-01T11:56:39.150Z,1.70
2023-04-01T11:59:15.946Z,1.30
2023-04-01T12:02:08.102Z,1.50
2023-04-01T12:04:55.482Z,1.58
2023-04-01T12:07:30.923Z,1.50
2023-04-01T12:10:19.652Z,1.70
2023-04-01T12:13:24.089Z,2.03
2023-04-01T12:16:15.614Z,1.60
2023-04-01T12:18:51.894Z,1.30
2023-04-01T12:21:48.636Z,1.40
2023-04-01T12:24:36.193Z,1.60
2023-04-01T12:27:24.608Z,1.67
2023-04-01T12:30:22.899Z,1.30
2023-04-01T12:33:32.022Z,1.20
2023-04-01T12:36:17.411Z,1.45
2023-04-01T12:38:48.854Z,1.70
2023-04-01T12:41:22.692Z,1.63
2023-04-01T12:44:10.908Z,1.83
2023-04-01T12:46:59.645Z,1.80
2023-04-01T12:49:56.072Z,2.03
2023-04-01T12:52:26.021Z,1.20
2023-04-01T12:55:04.213Z,1.50
2023-04-01T12:58:02.603Z,1.38
2023-04-01T13:01:01.037Z,1.40
2023-04-01T13:03:43.394Z,1.85
2023-04-01T13:06:27.476Z,1.70
2023-04-01T13:09:08.842Z,2.20
2023-04-01T13:11:48.461Z,1.73
2023-04-01T13:14:31.339Z,1.27
2023-04-01T13:17:17.176Z,1.15
2023-04-01T13:20:04.299Z,1.40
2023-04-01T13:22:39.154Z,1.33
2023-04-01T13:25:37.401Z,1.33
2023-04-01T13:28:16.640Z,1.20
2023-04-01T13:31:20.441Z,1.00
2023-04-01T13:33:56.715Z,1.10
2023-04-01T13:36:45.554Z,1.70
2023-04-01T13:39:14.302Z,2.03
2023-04-01T13:41:44.492Z,2.33
2023-04-01T13:44:19.224Z,1.60
2023-04-01T13:46:59.760Z,2.50
2023-04-01T13:49:33.193Z,2.27
2023-04-01T13:52:25.535Z,2.10
2023-04-01T13:55:24.819Z,2.10
2023-04-01T13:57:58.767Z,1.60
2023-04-01T14:00:53.920Z,1.63
2023-04-01T14:03:24.034Z,1.50
2023-04-01T14:06:14.186Z,1.90
2023-04-01T14:08:45.495Z,2.00
2023-04-01T14:11:37.261Z,1.63
2023-04-01T14:14:28.120Z,2.00
2023-04-01T14:17:22.525Z,2.23
2023-04-01T14:20:12.200Z,2.33
2023-04-01T14:22:51.950Z,2.25
2023-04-01T14:25:31.200Z,2.00
2023-04-01T14:28:08.697Z,2.35
2023-04-01T14:30:52.880Z,2.33
2023-04-01T14:33:44.908Z,1.92
2023-04-01T14:36:39.825Z,1.63
2023-04-01T14:39:45.555Z,1.80
2023-04-01T14:42:33.755Z,1.77
2023-04-01T14:45:22.757Z,1.83
2023-04-01T14:47:59.731Z,1.70
2023-04-01T14:50:31.322Z,1.20
2023-04-01T14:53:09.800Z,1.10
2023-04-01T14:55:39.929Z,1.48
2023-04-01T14:58:14.700Z,1.60
2023-04-01T15:00:55.068Z,1.83
2023-04-01T15:03:28.030Z,1.50
2023-04-01T15:06:16.557Z,1.80
2023-04-01T15:09:02.498Z,1.88
2023-04-01T15:11:49.762Z,2.20
2023-04-01T15:14:29.107Z,2.10
2023-04-01T15:17:00.340Z,2.53
2023-04-01T15:19:30.091Z,2.15
2023-04-01T15:22:21.878Z,2.75
2023-04-01T15:25:03.874Z,2.63
2023-04-01T15:27:51.830Z,2.70
2023-04-01T15:30:36.718Z,2.20
2023-04-01T15:33:08.207Z,2.30
2023-04-01T15:35:47.886Z,3.22
2023-04-01T15:38:24.181Z,2.60
2023-04-01T15:41:23.816Z,2.40
2023-04-01T15:43:53.266Z,2.60
2023-04-01T15:46:23.275Z,2.55
2023-04-01T15:48:56.697Z,2.30
2023-04-01T15:51:38.901Z,2.30
2023-04-01T15:54:10.565Z,2.30
2023-04-01T15:56:42.274Z,2.13
2023-04-01T15:59:54.486Z,2.20
2023-04-01T16:02:41.453Z,2.78
2023-04-01T16:05:29.060Z,2.90
2023-04-01T16:08:31.928Z,3.10
2023-04-01T16:11:19.091Z,2.70
2023-04-01T16:14:05.117Z,3.00
2023-04-01T16:16:41.216Z,4.25
2023-04-01T16:19:34.033Z,4.33
2023-04-01T16:22:19.556Z,3.97
2023-04-01T16:24:48.007Z,3.95
2023-04-01T16:27:35.300Z,3.47
2023-04-01T16:30:21.294Z,3.35
2023-04-01T16:33:14.270Z,3.80
2023-04-01T16:35:52.108Z,2.78
2023-04-01T16:38:27.805Z,2.53
2023-04-01T16:41:23.113Z,2.10
2023-04-01T16:43:56.847Z,2.35
2023-04-01T16:46:41.745Z,1.80
2023-04-01T16:49:11.945Z,1.65
2023-04-01T16:51:49.751Z,1.90
2023-04-01T16:54:19.945Z,2.22
2023-04-01T16:56:55.417Z,2.53
2023-04-01T16:59:37.472Z,2.80
2023-04-01T17:02:09.879Z,2.60
2023-04-01T17:04:46.697Z,2.45
2023-04-01T17:07:51.163Z,2.40
2023-04-01T17:10:37.403Z,2.75
2023-04-01T17:13:20.639Z,2.70
2023-04-01T17:16:08.719Z,2.78
2023-04-01T17:18:41.952Z,3.10
2023-04-01T17:21:29.671Z,2.88
2023-04-01T17:24:22.580Z,3.03
2023-04-01T17:26:55.176Z,2.80
2023-04-01T17:29:41.279Z,2.88
2023-04-01T17:32:32.621Z,2.35
2023-04-01T17:35:15.426Z,2.55
2023-04-01T17:37:42.704Z,2.25
2023-04-01T17:40:42.502Z,2.60
2023-04-01T17:43:15.494Z,2.90
2023-04-01T17:45:56.880Z,3.20
2023-04-01T17:48:45.572Z,3.28
2023-04-01T17:51:50.726Z,5.50
2023-04-01T17:54:33.271Z,4.10
2023-04-01T17:57:06.034Z,4.18
2023-04-01T17:59:53.798Z,5.20
2023-04-01T18:02:36.359Z,4.93
2023-04-01T18:05:32.874Z,4.57
2023-04-01T18:08:36.842Z,5.07
2023-04-01T18:11:07.481Z,4.38
2023-04-01T18:14:14.484Z,4.63
2023-04-01T18:16:47.584Z,5.40
2023-04-01T18:19:52.384Z,5.68
2023-04-01T18:22:45.637Z,3.90
2023-04-01T18:25:18.203Z,3.78
2023-04-01T18:28:30.612Z,3.60
2023-04-01T18:31:04.024Z,3.03
2023-04-01T18:33:44.593Z,2.47
2023-04-01T18:36:20.181Z,2.63
2023-04-01T18:38:57.201Z,1.83
2023-04-01T18:41:36.445Z,1.77
2023-04-01T18:44:28.451Z,1.95
2023-04-01T18:47:01.568Z,1.67
2023-04-01T18:49:58.233Z,2.33
2023-04-01T18:52:25.458Z,2.45
2023-04-01T18:55:01.951Z,2.00
2023-04-01T18:57:51.337Z,1.77
2023-04-01T19:00:21.350Z,1.42
2023-04-01T19:03:03.867Z,1.13
2023-04-01T19:05:35.326Z,1.17
2023-04-01T19:08:32.213Z,1.05
2023-04-01T19:11:18.133Z,0.98
2023-04-01T19:13:57.404Z,0.80
2023-04-01T19:16:31.484Z,0.90
2023-04-01T19:19:23.086Z,0.70
2023-04-01T19:21:54.028Z,0.90
2023-04-01T19:24:26.881Z,0.95
2023-04-01T19:27:07.164Z,1.05
2023-04-01T19:29:44.273Z,0.90
2023-04-01T19:32:17.107Z,0.88
2023-04-01T19:35:07.591Z,1.02
2023-04-01T19:37:44.978Z,0.90
2023-04-01T19:40:25.981Z,0.88
2023-04-01T19:42:59.929Z,0.90
2023-04-01T19:45:33.301Z,0.75
2023-04-01T19:48:07.064Z,1.10
2023-04-01T19:51:07.391Z,0.90
2023-04-01T19:53:40.708Z,1.00
2023-04-01T19:56:19.161Z,1.00
2023-04-01T19:58:51.720Z,0.88
2023-04-01T20:01:45.262Z,0.88
2023-04-01T20:04:35.411Z,1.00
2023-04-01T20:07:10.612Z,1.05
2023-04-01T20:10:04.193Z,1.07
2023-04-01T20:12:59.065Z,0.93
2023-04-01T20:15:45.901Z,0.90
2023-04-01T20:18:24.910Z,1.20
2023-04-01T20:21:15.502Z,0.80
2023-04-01T20:23:51.658Z,0.80
2023-04-01T20:26:39.141Z,0.80
2023-04-01T20:29:22.976Z,0.80
2023-04-01T20:32:29.117Z,0.90
2023-04-01T20:35:21.335Z,0.70
2023-04-01T20:38:07.290Z,0.67
2023-04-01T20:40:39.883Z,0.70
2023-04-01T20:43:31.833Z,0.52
2023-04-01T20:46:20.171Z,0.80
2023-04-01T20:49:08.535Z,1.05
2023-04-01T20:51:44.474Z,1.00
2023-04-01T20:54:34.772Z,1.30
2023-04-01T20:57:11.299Z,0.80
2023-04-01T20:59:57.745Z,1.17
2023-04-01T21:02:34.019Z,0.93
2023-04-01T21:05:11.349Z,0.80
2023-04-01T21:07:45.859Z,1.00
2023-04-01T21:10:42.668Z,0.82
2023-04-01T21:13:31.891Z,0.95
2023-04-01T21:16:35.243Z,1.10
2023-04-01T21:19:14.624Z,1.10
2023-04-01T21:21:52.217Z,1.35
2023-04-01T21:24:57.805Z,0.93
2023-04-01T21:27:27.723Z,1.00
2023-04-01T21:30:31.941Z,1.10
2023-04-01T21:33:15.201Z,1.23
2023-04-01T21:36:01.187Z,1.17
2023-04-01T21:38:41.191Z,1.25
2023-04-01T21:41:11.397Z,1.20
2023-04-01T21:43:57.422Z,1.25
2023-04-01T21:46:49.529Z,1.10
2023-04-01T21:49:22.783Z,1.48
2023-04-01T21:52:08.279Z,1.80
2023-04-01T21:54:57.388Z,1.30
2023-04-01T21:57:49.490Z,1.50
2023-04-01T22:00:35.147Z,1.30
2023-04-01T22:03:43.506Z,1.20
2023-04-01T22:06:31.061Z,1.30
2023-04-01T22:09:11.159Z,1.23
2023-04-01T22:11:50.664Z,1.10
2023-04-01T22:14:44.681Z,1.70
2023-04-01T22:17:24.128Z,1.60
2023-04-01T22:20:11.003Z,1.70
2023-04-01T22:23:13.813Z,1.90
2023-04-01T22:26:00.306Z,1.50
2023-04-01T22:28:36.230Z,1.50
2023-04-01T22:31:04.198Z,1.45
2023-04-01T22:34:22.810Z,1.23
2023-04-01T22:37:08.171Z,1.60
2023-04-01T22:39:50.671Z,1.50
2023-04-01T22:42:33.190Z,1.50
2023-04-01T22:45:07.100Z,1.58
2023-04-01T22:47:50.764Z,2.10
2023-04-01T22:50:25.468Z,1.58
2023-04-01T22:53:00.506Z,1.98
2023-04-01T22:55:31.544Z,2.10
2023-04-01T22:58:16.085Z,1.90
2023-04-01T23:00:46.556Z,1.45
2023-04-01T23:03:30.110Z,2.20
2023-04-01T23:06:01.728Z,2.28
2023-04-01T23:08:55.549Z,2.47
2023-04-01T23:11:46.091Z,2.38
2023-04-01T23:14:24.358Z,1.92
2023-04-01T23:17:03.987Z,1.90
2023-04-01T23:19:53.251Z,2.10
2023-04-01T23:22:28.726Z,1.70
2023-04-01T23:25:17.479Z,1.95
2023-04-01T23:28:10.600Z,1.92
2023-04-01T23:30:40.948Z,1.80
2023-04-01T23:33:23.383Z,2.22
2023-04-01T23:35:57.754Z,2.20
2023-04-01T23:38:26.425Z,2.40
2023-04-01T23:40:55.061Z,2.13
2023-04-01T23:43:32.174Z,1.75
2023-04-01T23:46:01.588Z,1.90
2023-04-01T23:48:39.658Z,2.07
2023-04-01T23:51:27.707Z,2.15
2023-04-01T23:54:16.275Z,2.63
2023-04-01T23:56:49.006Z,1.90
2023-04-01T23:59:38.487Z,2.10
